Time;durP1;ratioP1;P1;durP2;ratioP2;P2;SDS_P1;SDS_P2;PMS_P1;PMS_P2;Temp;Humidity;BMP_temperature;BMP_pressure;BME280_temperature;BME280_humidity;BME280_pressure;Samples;Min_cycle;Max_cycle;Signal;HPM_P1;HPM_P2
2023/07/05 00:02:15;;;;;;;3.20;3.00;;;23.90;56.60;24.80;99905.00;;;;5009398;28;20176;-47
2023/07/05 00:04:41;;;;;;;3.27;3.07;;;23.90;56.50;24.80;99930.00;;;;4990893;28;20229;-48
2023/07/05 00:07:07;;;;;;;3.38;3.08;;;23.90;56.50;24.80;99912.00;;;;4991120;28;20293;-48
2023/07/05 00:09:33;;;;;;;2.90;2.70;;;23.90;56.50;24.80;99904.00;;;;5009083;28;20187;-48
2023/07/05 00:11:58;;;;;;;3.42;3.00;;;23.90;56.40;24.80;99887.00;;;;5008211;28;20570;-48
2023/07/05 00:14:24;;;;;;;3.15;2.95;;;23.90;56.50;24.70;99879.00;;;;5008638;28;20176;-48
2023/07/05 00:16:50;;;;;;;2.90;2.70;;;23.80;56.40;24.70;99878.00;;;;5008519;28;20213;-48
2023/07/05 00:19:15;;;;;;;3.10;2.90;;;23.80;56.40;24.70;99867.00;;;;5008713;28;20167;-49
2023/07/05 00:21:41;;;;;;;3.05;2.85;;;23.80;56.40;24.70;99863.00;;;;5008673;28;20188;-49
2023/07/05 00:24:07;;;;;;;3.25;3.05;;;23.80;56.30;24.70;99857.00;;;;5008490;28;20172;-49
2023/07/05 00:26:33;;;;;;;2.92;2.72;;;23.80;56.40;24.70;99845.00;;;;4991032;28;20499;-48
2023/07/05 00:28:58;;;;;;;3.00;2.80;;;23.80;56.30;24.70;99850.00;;;;5008546;28;20187;-48
2023/07/05 00:31:24;;;;;;;3.15;2.85;;;23.80;56.30;24.70;99857.00;;;;5008635;28;20182;-48
2023/07/05 00:33:50;;;;;;;3.20;3.00;;;23.80;56.30;24.60;99838.00;;;;5008264;28;20266;-48
2023/07/05 00:36:15;;;;;;;2.90;2.70;;;23.80;56.40;24.60;99848.00;;;;5008413;28;20286;-48
2023/07/05 00:38:41;;;;;;;3.20;3.00;;;23.80;56.40;24.60;99852.00;;;;4990779;28;20175;-48
2023/07/05 00:41:07;;;;;;;3.23;2.97;;;23.80;56.40;24.60;99833.00;;;;5008551;28;20203;-48
2023/07/05 00:43:33;;;;;;;2.97;2.78;;;23.80;56.40;24.60;99838.00;;;;5008081;28;20183;-49
2023/07/05 00:46:04;;;;;;;3.10;2.90;;;23.80;56.40;24.60;99838.00;;;;5008512;28;20249;-48
2023/07/05 00:48:40;;;;;;;3.10;2.90;;;23.80;56.40;24.60;99842.00;;;;4990789;28;20172;-47
2023/07/05 00:51:18;;;;;;;2.93;2.73;;;23.80;56.40;24.60;99827.00;;;;4991714;28;20520;-48
2023/07/05 00:53:43;;;;;;;2.85;2.65;;;23.80;56.40;24.50;99826.00;;;;4956553;28;20558;-48
2023/07/05 00:56:21;;;;;;;3.00;2.80;;;23.70;56.40;24.60;99830.00;;;;4970874;28;20207;-48
2023/07/05 00:58:48;;;;;;;3.00;2.80;;;23.70;56.40;24.50;99826.00;;;;4962130;28;20215;-52
2023/07/05 01:01:13;;;;;;;3.45;3.15;;;23.70;56.40;24.50;99820.00;;;;5010632;28;20164;-49
2023/07/05 01:03:41;;;;;;;3.17;2.97;;;23.70;56.40;24.50;99805.00;;;;5026942;28;20198;-50
2023/07/05 01:06:08;;;;;;;3.13;2.92;;;23.70;56.40;24.50;99788.00;;;;4992415;28;20202;-49
2023/07/05 01:08:35;;;;;;;3.07;2.80;;;23.70;56.40;24.50;99798.00;;;;4992070;28;20215;-49
2023/07/05 01:11:24;;;;;;;2.90;2.70;;;23.70;56.40;24.50;99795.00;;;;5009163;28;20204;-48
2023/07/05 01:14:24;;;;;;;2.93;2.73;;;23.70;56.40;24.50;99793.00;;;;4970964;28;20183;-48
2023/07/05 01:17:14;;;;;;;3.00;2.80;;;23.60;56.30;24.40;99794.00;;;;5001100;28;20195;-48
2023/07/05 01:20:17;;;;;;;3.00;2.80;;;23.70;56.40;24.40;99794.00;;;;5019623;28;20195;-48
2023/07/05 01:22:58;;;;;;;3.00;2.80;;;23.60;56.30;24.40;99809.00;;;;4995291;28;20172;-49
2023/07/05 01:25:41;;;;;;;2.90;2.70;;;23.60;56.40;24.40;99805.00;;;;5011418;28;20739;-48
2023/07/05 01:28:19;;;;;;;2.97;2.70;;;23.60;56.40;24.40;99788.00;;;;5011547;28;20752;-48
2023/07/05 01:31:31;;;;;;;2.93;2.73;;;23.60;56.40;24.40;99792.00;;;;5011503;28;20183;-48
2023/07/05 01:34:26;;;;;;;2.90;2.70;;;23.60;56.40;24.30;99781.00;;;;4996381;28;20697;-48
2023/07/05 01:36:52;;;;;;;3.10;2.87;;;23.60;56.30;24.30;99777.00;;;;4996705;28;20321;-48
2023/07/05 01:39:17;;;;;;;3.10;2.90;;;23.60;56.40;24.30;99775.00;;;;5011446;28;20183;-49
2023/07/05 01:41:43;;;;;;;3.03;2.83;;;23.60;56.40;24.30;99767.00;;;;5011401;28;20176;-48
2023/07/05 01:44:09;;;;;;;2.87;2.67;;;23.60;56.50;24.30;99771.00;;;;4993440;28;20179;-48
2023/07/05 01:47:09;;;;;;;3.00;2.80;;;23.60;56.60;24.30;99759.00;;;;4993743;28;20271;-48
2023/07/05 01:49:53;;;;;;;2.87;2.67;;;23.60;56.60;24.30;99756.00;;;;4980485;28;20202;-47
2023/07/05 01:52:29;;;;;;;2.83;2.63;;;23.60;56.60;24.30;99742.00;;;;5011124;28;20214;-48
2023/07/05 01:55:18;;;;;;;2.70;2.50;;;23.50;56.60;24.30;99735.00;;;;4978566;28;20728;-48
2023/07/05 01:57:54;;;;;;;3.00;2.67;;;23.50;56.50;24.20;99736.00;;;;4992963;28;20269;-48
2023/07/05 02:00:20;;;;;;;2.90;2.70;;;23.60;56.60;24.20;99732.00;;;;4978218;28;20176;-47
2023/07/05 02:02:56;;;;;;;2.87;2.67;;;23.50;56.50;24.20;99724.00;;;;4960832;28;20176;-48
2023/07/05 02:05:23;;;;;;;2.63;2.43;;;23.50;56.60;24.20;99725.00;;;;4992999;28;20283;-48
2023/07/05 02:07:48;;;;;;;2.83;2.63;;;23.50;56.60;24.20;99725.00;;;;4993094;28;20689;-49
2023/07/05 02:10:14;;;;;;;2.70;2.50;;;23.50;56.50;24.20;99715.00;;;;5010677;28;20172;-48
2023/07/05 02:12:40;;;;;;;2.90;2.70;;;23.50;56.60;24.20;99716.00;;;;5010773;28;20168;-48
2023/07/05 02:15:07;;;;;;;2.70;2.50;;;23.50;56.60;24.20;99712.00;;;;5010327;28;20167;-47
2023/07/05 02:17:32;;;;;;;2.90;2.70;;;23.50;56.60;24.20;99705.00;;;;5010443;28;20199;-48
2023/07/05 02:19:58;;;;;;;2.83;2.63;;;23.50;56.60;24.20;99707.00;;;;5010655;28;20237;-48
2023/07/05 02:22:24;;;;;;;2.73;2.53;;;23.40;56.60;24.20;99700.00;;;;5010613;28;20187;-48
2023/07/05 02:24:51;;;;;;;2.87;2.67;;;23.40;56.60;24.20;99694.00;;;;5010080;28;20180;-48
2023/07/05 02:27:17;;;;;;;2.90;2.70;;;23.50;56.60;24.20;99702.00;;;;5010457;28;20258;-48
2023/07/05 02:29:43;;;;;;;3.83;2.63;;;23.40;56.60;24.10;99698.00;;;;5010118;28;20261;-49
2023/07/05 02:32:09;;;;;;;2.70;2.50;;;23.40;56.60;24.10;99706.00;;;;5010169;28;20658;-48
2023/07/05 02:34:40;;;;;;;3.07;2.77;;;23.40;56.60;24.10;99699.00;;;;4991872;28;20223;-47
2023/07/05 02:37:09;;;;;;;2.83;2.63;;;23.40;56.70;24.10;99700.00;;;;5010220;28;20296;-48
2023/07/05 02:39:35;;;;;;;2.67;2.47;;;23.40;56.70;24.10;99715.00;;;;5010512;28;20551;-48
2023/07/05 02:42:01;;;;;;;3.07;2.60;;;23.40;56.70;24.10;99715.00;;;;5010349;28;20171;-48
2023/07/05 02:44:27;;;;;;;2.80;2.60;;;23.40;56.70;24.10;99712.00;;;;5010194;28;20164;-48
2023/07/05 02:46:53;;;;;;;2.80;2.60;;;23.40;56.80;24.10;99697.00;;;;5010152;28;20282;-48
2023/07/05 02:49:19;;;;;;;2.80;2.60;;;23.40;56.80;24.10;99687.00;;;;5010233;28;20376;-48
2023/07/05 02:51:44;;;;;;;2.87;2.67;;;23.40;56.80;24.10;99693.00;;;;4992609;28;20538;-47
2023/07/05 02:54:10;;;;;;;2.60;2.40;;;23.40;56.80;24.10;99692.00;;;;5010054;28;20175;-48
2023/07/05 02:56:36;;;;;;;2.70;2.50;;;23.40;56.90;24.10;99694.00;;;;5009680;28;20219;-48
2023/07/05 02:59:01;;;;;;;2.60;2.40;;;23.40;56.90;24.10;99702.00;;;;5009786;28;20168;-48
2023/07/05 03:01:27;;;;;;;2.70;2.50;;;23.40;56.90;24.10;99713.00;;;;5011356;28;20721;-49
2023/07/05 03:03:53;;;;;;;2.80;2.60;;;23.40;56.90;24.10;99706.00;;;;4995029;28;20229;-48
2023/07/05 03:06:18;;;;;;;2.60;2.40;;;23.40;56.90;24.00;99703.00;;;;5017530;28;20207;-58
2023/07/05 03:08:44;;;;;;;2.60;2.40;;;23.40;56.90;24.10;99723.00;;;;5012549;28;20187;-47
2023/07/05 03:11:10;;;;;;;2.63;2.43;;;23.40;56.90;24.00;99714.00;;;;5012068;28;20199;-47
2023/07/05 03:13:36;;;;;;;2.87;2.67;;;23.30;56.90;24.00;99730.00;;;;5011010;28;20186;-48
2023/07/05 03:16:02;;;;;;;2.37;2.20;;;23.30;56.90;24.00;99721.00;;;;5011543;28;20215;-48
2023/07/05 03:18:28;;;;;;;2.80;2.60;;;23.30;56.90;24.00;99739.00;;;;5011935;28;20635;-48
2023/07/05 03:20:53;;;;;;;2.53;2.33;;;23.30;56.90;24.00;99733.00;;;;5030356;28;20175;-47
2023/07/05 03:23:19;;;;;;;2.30;2.20;;;23.30;57.00;24.00;99746.00;;;;5016048;28;20172;-48
2023/07/05 03:26:02;;;;;;;2.73;2.53;;;23.30;57.00;24.00;99751.00;;;;5012340;28;20191;-49
2023/07/05 03:28:30;;;;;;;2.73;2.53;;;23.30;57.00;24.00;99762.00;;;;5010456;28;20662;-49
2023/07/05 03:31:00;;;;;;;2.70;2.50;;;23.30;57.10;24.00;99770.00;;;;5010873;28;20176;-47
2023/07/05 03:33:26;;;;;;;3.70;2.20;;;23.30;57.00;24.00;99773.00;;;;5010395;28;20171;-48
2023/07/05 03:36:03;;;;;;;2.70;2.50;;;23.20;56.90;24.00;99786.00;;;;5010472;28;20718;-48
2023/07/05 03:38:29;;;;;;;2.80;2.60;;;23.30;57.10;24.00;99779.00;;;;5010495;28;20246;-48
2023/07/05 03:41:00;;;;;;;2.50;2.30;;;23.30;57.10;24.00;99788.00;;;;5010362;28;20183;-47
2023/07/05 03:43:26;;;;;;;2.43;2.23;;;23.20;57.10;24.00;99802.00;;;;5010241;28;20382;-47
2023/07/05 03:45:53;;;;;;;2.50;2.30;;;23.30;57.30;24.00;99813.00;;;;5009498;28;20203;-49
2023/07/05 03:48:20;;;;;;;2.50;2.30;;;23.20;57.20;24.00;99824.00;;;;4992111;28;20267;-48
2023/07/05 03:50:46;;;;;;;2.60;2.40;;;23.20;57.10;24.00;99818.00;;;;5010683;28;20267;-48
2023/07/05 03:53:12;;;;;;;2.63;2.43;;;23.20;57.10;24.00;99833.00;;;;5009970;28;20246;-48
2023/07/05 03:55:37;;;;;;;2.70;2.50;;;23.20;57.10;23.90;99839.00;;;;5009898;28;20207;-47
2023/07/05 03:58:03;;;;;;;2.33;2.17;;;23.20;57.10;23.90;99848.00;;;;5010498;28;20172;-48
2023/07/05 04:00:29;;;;;;;2.40;2.20;;;23.20;57.20;23.90;99843.00;;;;5009886;28;20231;-48
2023/07/05 04:02:55;;;;;;;2.33;2.20;;;23.20;57.20;23.90;99859.00;;;;4992583;28;20206;-47
2023/07/05 04:05:20;;;;;;;2.40;2.20;;;23.20;57.20;23.90;99871.00;;;;5009609;28;20172;-47
2023/07/05 04:07:46;;;;;;;2.60;2.40;;;23.20;57.20;23.90;99862.00;;;;5010044;28;20187;-47
2023/07/05 04:10:12;;;;;;;2.50;2.30;;;23.20;57.20;23.80;99865.00;;;;4992582;28;20199;-49
2023/07/05 04:12:38;;;;;;;2.43;2.27;;;23.20;57.20;23.90;99878.00;;;;5009794;28;20171;-49
2023/07/05 04:15:04;;;;;;;2.57;2.40;;;23.20;57.20;23.80;99872.00;;;;5009392;28;20164;-48
2023/07/05 04:17:30;;;;;;;2.40;2.13;;;23.10;57.10;23.80;99876.00;;;;5009805;28;20725;-47
2023/07/05 04:19:56;;;;;;;2.17;2.07;;;23.10;57.10;23.80;99885.00;;;;5009925;28;20178;-48
2023/07/05 04:22:22;;;;;;;2.63;2.30;;;23.10;57.10;23.80;99882.00;;;;5009776;28;20172;-48
2023/07/05 04:24:48;;;;;;;2.40;2.20;;;23.10;57.10;23.80;99888.00;;;;5009624;28;20171;-47
2023/07/05 04:27:15;;;;;;;2.40;2.23;;;23.10;57.00;23.80;99899.00;;;;4992253;28;20231;-48
2023/07/05 04:29:40;;;;;;;2.20;2.10;;;23.10;57.00;23.80;99898.00;;;;5009817;28;20187;-47
2023/07/05 04:32:07;;;;;;;2.50;2.30;;;23.10;57.00;23.80;99901.00;;;;4992576;28;20242;-48
2023/07/05 04:34:32;;;;;;;2.60;2.40;;;23.10;57.00;23.80;99906.00;;;;5009896;28;20190;-48
2023/07/05 04:36:58;;;;;;;2.43;2.27;;;23.00;56.80;23.80;99904.00;;;;5009772;28;20208;-48
2023/07/05 04:39:24;;;;;;;2.30;2.20;;;23.10;57.00;23.80;99909.00;;;;5009713;28;20172;-47
2023/07/05 04:41:50;;;;;;;2.20;2.10;;;23.00;56.90;23.70;99910.00;;;;5009711;28;20178;-47
2023/07/05 04:44:15;;;;;;;2.37;2.23;;;23.10;56.90;23.70;99912.00;;;;5009111;28;20176;-47
2023/07/05 04:46:41;;;;;;;2.57;2.37;;;23.00;56.80;23.70;99907.00;;;;5009554;28;20199;-49
2023/07/05 04:49:07;;;;;;;2.50;2.30;;;23.00;56.90;23.70;99912.00;;;;5009312;28;20180;-49
2023/07/05 04:51:32;;;;;;;2.43;2.23;;;23.00;56.90;23.70;99912.00;;;;5009284;28;20243;-48
2023/07/05 04:53:58;;;;;;;2.53;2.33;;;23.00;56.90;23.70;99923.00;;;;5009386;28;20238;-48
2023/07/05 04:56:24;;;;;;;2.50;2.30;;;23.00;56.90;23.70;99929.00;;;;5009410;28;20737;-47
2023/07/05 04:58:50;;;;;;;2.40;2.27;;;23.00;57.00;23.70;99926.00;;;;5011885;28;20247;-47
2023/07/05 05:01:17;;;;;;;2.07;1.97;;;23.00;57.00;23.70;99929.00;;;;5013261;28;20183;-47
2023/07/05 05:03:43;;;;;;;2.20;2.10;;;23.00;57.00;23.60;99917.00;;;;5012974;28;20183;-47
2023/07/05 05:06:08;;;;;;;2.27;2.17;;;23.00;57.00;23.60;99921.00;;;;5014419;28;20254;-47
2023/07/05 05:08:34;;;;;;;2.20;2.10;;;23.00;57.00;23.60;99925.00;;;;5033583;28;20186;-48
2023/07/05 05:11:01;;;;;;;2.20;2.10;;;22.90;56.90;23.60;99919.00;;;;4998363;28;20175;-48
2023/07/05 05:13:29;;;;;;;2.60;2.40;;;22.90;56.90;23.60;99915.00;;;;5014014;28;20171;-49
2023/07/05 05:15:56;;;;;;;2.23;2.10;;;22.90;56.90;23.60;99914.00;;;;5014055;28;20215;-48
2023/07/05 05:18:22;;;;;;;2.30;2.13;;;22.90;56.90;23.60;99922.00;;;;5014632;28;20183;-48
2023/07/05 05:20:48;;;;;;;2.20;2.10;;;22.90;56.90;23.60;99933.00;;;;5017025;28;20168;-48
2023/07/05 05:23:14;;;;;;;2.40;2.20;;;22.90;56.90;23.60;99932.00;;;;5034107;28;20179;-48
2023/07/05 05:25:42;;;;;;;2.50;2.30;;;22.90;57.00;23.60;99929.00;;;;5012835;28;20606;-48
2023/07/05 05:28:08;;;;;;;2.20;2.10;;;22.90;56.90;23.50;99927.00;;;;5013165;28;20226;-49
2023/07/05 05:30:35;;;;;;;2.40;2.20;;;22.90;56.90;23.50;99940.00;;;;5012975;28;20176;-47
2023/07/05 05:33:02;;;;;;;2.23;2.13;;;22.90;56.90;23.50;99940.00;;;;5012704;28;20183;-49
2023/07/05 05:35:28;;;;;;;2.20;2.10;;;22.90;56.90;23.50;99932.00;;;;5012359;28;20187;-47
2023/07/05 05:37:53;;;;;;;2.20;2.10;;;22.80;56.90;23.50;99945.00;;;;5012674;28;20344;-48
2023/07/05 05:40:19;;;;;;;2.30;2.20;;;22.80;56.90;23.50;99944.00;;;;5012691;28;20180;-47
2023/07/05 05:42:45;;;;;;;2.40;2.20;;;22.80;56.90;23.50;99954.00;;;;5013013;28;20176;-47
2023/07/05 05:45:11;;;;;;;2.23;2.03;;;22.80;56.90;23.50;99960.00;;;;5015018;28;20229;-48
2023/07/05 05:47:36;;;;;;;2.33;2.20;;;22.80;56.90;23.50;99954.00;;;;5012506;28;20282;-47
2023/07/05 05:50:02;;;;;;;2.50;2.30;;;22.80;56.90;23.50;99963.00;;;;5012321;28;20184;-48
2023/07/05 05:52:28;;;;;;;2.37;2.20;;;22.80;56.90;23.50;99942.00;;;;5012448;28;20277;-48
2023/07/05 05:54:54;;;;;;;2.10;2.00;;;22.80;56.90;23.50;99957.00;;;;5012148;28;20179;-48
2023/07/05 05:57:20;;;;;;;2.40;2.20;;;22.80;56.90;23.50;99965.00;;;;5012426;28;20207;-48
2023/07/05 05:59:45;;;;;;;2.20;2.10;;;22.80;56.90;23.50;99956.00;;;;5012605;28;20539;-48
2023/07/05 06:02:11;;;;;;;2.20;2.10;;;22.80;56.90;23.40;99950.00;;;;5012342;28;20183;-48
2023/07/05 06:04:37;;;;;;;2.20;2.10;;;22.80;56.90;23.40;99968.00;;;;5011925;28;20171;-48
2023/07/05 06:07:03;;;;;;;2.30;2.10;;;22.80;56.90;23.40;99967.00;;;;5012320;28;20208;-47
2023/07/05 06:09:28;;;;;;;2.43;2.23;;;22.70;56.80;23.40;99965.00;;;;5011091;28;20264;-49
2023/07/05 06:11:54;;;;;;;2.10;2.00;;;22.70;56.80;23.40;99962.00;;;;5011922;28;20587;-48
2023/07/05 06:14:20;;;;;;;2.20;2.10;;;22.70;56.80;23.40;99976.00;;;;5011626;28;20251;-49
2023/07/05 06:16:45;;;;;;;2.23;2.10;;;22.70;56.80;23.40;99972.00;;;;5012032;28;20282;-47
2023/07/05 06:19:11;;;;;;;2.30;2.20;;;22.70;56.80;23.40;99930.00;;;;5012013;28;20172;-47
2023/07/05 06:21:37;;;;;;;2.27;2.17;;;22.70;56.80;23.40;99993.00;;;;5013574;28;20601;-48
2023/07/05 06:24:03;;;;;;;2.40;2.20;;;22.70;56.80;23.40;100002.00;;;;5017490;28;20187;-48
2023/07/05 06:26:29;;;;;;;2.43;2.23;;;22.70;56.80;23.30;100018.00;;;;5015604;28;20199;-47
2023/07/05 06:28:54;;;;;;;2.50;2.30;;;22.70;56.90;23.30;100025.00;;;;5011613;28;20202;-48
2023/07/05 06:31:20;;;;;;;2.73;2.40;;;22.70;56.80;23.30;100014.00;;;;5011513;28;20520;-48
2023/07/05 06:33:46;;;;;;;2.40;2.20;;;22.60;56.70;23.30;100019.00;;;;5011497;28;20183;-47
2023/07/05 06:36:12;;;;;;;2.30;2.10;;;22.60;56.70;23.30;100020.00;;;;5011369;28;20285;-47
2023/07/05 06:38:37;;;;;;;2.10;2.00;;;22.70;56.80;23.30;100014.00;;;;5011547;28;20172;-47
2023/07/05 06:41:03;;;;;;;2.10;2.00;;;22.60;56.70;23.30;100021.00;;;;5011506;28;20255;-47
2023/07/05 06:43:29;;;;;;;2.50;2.30;;;22.60;56.70;23.30;100027.00;;;;5011415;28;20258;-48
2023/07/05 06:45:55;;;;;;;2.40;2.20;;;22.60;56.70;23.30;100024.00;;;;5011132;28;20219;-48
2023/07/05 06:48:21;;;;;;;2.23;2.13;;;22.60;56.70;23.20;100015.00;;;;5011039;28;20638;-47
2023/07/05 06:50:55;;;;;;;2.50;2.30;;;22.60;56.70;23.20;100023.00;;;;5011509;28;20441;-47
2023/07/05 06:53:21;;;;;;;2.40;2.20;;;22.60;56.70;23.20;100026.00;;;;5011091;28;20184;-47
2023/07/05 06:55:50;;;;;;;2.20;2.10;;;22.60;56.70;23.30;100025.00;;;;5010769;28;20282;-48
2023/07/05 06:58:16;;;;;;;2.40;2.20;;;22.60;56.70;23.20;100021.00;;;;5011337;28;20176;-48
2023/07/05 07:00:44;;;;;;;2.10;2.00;;;22.60;56.70;23.20;100022.00;;;;5011144;28;20176;-47
2023/07/05 07:03:10;;;;;;;2.40;2.20;;;22.60;56.70;23.20;100038.00;;;;5010977;28;20172;-48
2023/07/05 07:05:36;;;;;;;2.40;2.20;;;22.60;56.70;23.20;100036.00;;;;5020587;28;20172;-47
2023/07/05 07:08:02;;;;;;;2.40;2.20;;;22.60;56.70;23.20;100044.00;;;;5028344;28;20183;-48
2023/07/05 07:10:27;;;;;;;2.33;2.13;;;22.50;56.60;23.20;100047.00;;;;4994582;28;20261;-48
2023/07/05 07:12:53;;;;;;;2.27;2.07;;;22.50;56.60;23.20;100054.00;;;;5011374;28;20458;-47
2023/07/05 07:15:19;;;;;;;2.37;2.20;;;22.50;56.60;23.20;100056.00;;;;5012116;28;20172;-48
2023/07/05 07:17:46;;;;;;;2.77;2.20;;;22.50;56.60;23.20;100065.00;;;;5011955;28;20200;-48
2023/07/05 07:20:12;;;;;;;2.50;2.30;;;22.50;56.60;23.20;100066.00;;;;5015659;28;20175;-47
2023/07/05 07:22:39;;;;;;;1.90;1.80;;;22.50;56.60;23.20;100067.00;;;;5015939;28;20175;-47
2023/07/05 07:25:06;;;;;;;2.17;2.03;;;22.60;56.60;23.20;100065.00;;;;5010420;28;20172;-47
2023/07/05 07:27:32;;;;;;;2.40;2.20;;;22.50;56.60;23.20;100056.00;;;;4992851;28;20672;-48
2023/07/05 07:29:58;;;;;;;3.20;2.20;;;22.50;56.60;23.20;100059.00;;;;5010855;28;20261;-49
2023/07/05 07:32:24;;;;;;;2.20;2.00;;;22.50;56.60;23.20;100056.00;;;;5010793;28;20257;-48
2023/07/05 07:34:54;;;;;;;2.40;2.20;;;22.60;56.50;23.20;100054.00;;;;5010285;28;20182;-47
2023/07/05 07:37:19;;;;;;;2.30;2.10;;;22.60;56.60;23.20;100050.00;;;;5010355;28;20685;-48
2023/07/05 07:39:45;;;;;;;2.63;2.10;;;22.60;56.50;23.20;100066.00;;;;5010327;28;20171;-48
2023/07/05 07:42:11;;;;;;;2.10;2.00;;;22.60;56.60;23.20;100062.00;;;;5010406;28;20175;-48
2023/07/05 07:44:36;;;;;;;2.10;2.00;;;22.50;56.60;23.20;100065.00;;;;5010381;28;20176;-48
2023/07/05 07:47:03;;;;;;;2.27;2.10;;;22.50;56.60;23.20;100058.00;;;;4992658;28;20247;-47
2023/07/05 07:49:29;;;;;;;2.30;2.10;;;22.50;56.60;23.20;100062.00;;;;5010120;28;20237;-47
2023/07/05 07:51:55;;;;;;;2.27;2.10;;;22.50;56.60;23.20;100066.00;;;;5010376;28;20179;-48
2023/07/05 07:54:26;;;;;;;2.33;2.10;;;22.50;56.70;23.10;100082.00;;;;5009966;28;20211;-49
2023/07/05 07:56:53;;;;;;;2.40;2.20;;;22.50;56.70;23.20;100088.00;;;;5010002;28;20297;-48
2023/07/05 07:59:19;;;;;;;2.40;2.20;;;22.50;56.70;23.20;100078.00;;;;5010302;28;20179;-49
2023/07/05 08:01:45;;;;;;;2.27;2.10;;;22.50;56.70;23.10;100096.00;;;;4992515;28;20242;-49
2023/07/05 08:04:11;;;;;;;3.17;2.23;;;22.50;56.70;23.10;100101.00;;;;5009944;28;20172;-47
2023/07/05 08:06:40;;;;;;;2.60;2.20;;;22.50;56.70;23.10;100032.00;;;;5010150;28;20199;-49
2023/07/05 08:09:08;;;;;;;2.27;2.07;;;22.40;56.70;23.10;100112.00;;;;5010262;28;20191;-48
2023/07/05 08:11:34;;;;;;;2.33;2.00;;;22.40;57.30;23.10;100112.00;;;;5010170;28;20231;-47
2023/07/05 08:13:59;;;;;;;5.63;2.30;;;22.40;56.60;23.10;100107.00;;;;5010021;28;20685;-48
2023/07/05 08:16:25;;;;;;;2.20;2.00;;;22.40;56.60;23.10;100132.00;;;;5009855;28;20286;-48
2023/07/05 08:18:51;;;;;;;2.13;2.03;;;22.40;56.70;23.10;100136.00;;;;5010088;28;20643;-49
2023/07/05 08:21:17;;;;;;;2.57;2.00;;;22.40;56.60;23.10;100139.00;;;;5010112;28;20168;-47
2023/07/05 08:23:43;;;;;;;2.30;2.10;;;22.40;56.50;23.10;100131.00;;;;5009920;28;20175;-48
2023/07/05 08:26:10;;;;;;;2.83;2.23;;;22.40;56.60;23.10;100146.00;;;;5009756;28;20202;-47
2023/07/05 08:28:36;;;;;;;2.43;2.13;;;22.40;56.70;23.10;100143.00;;;;5009816;28;20191;-48
2023/07/05 08:31:03;;;;;;;2.10;1.90;;;22.40;56.70;23.10;100147.00;;;;5009755;28;20531;-47
2023/07/05 08:33:29;;;;;;;2.20;1.97;;;22.40;56.60;23.10;100138.00;;;;5011764;28;20199;-48
2023/07/05 08:36:07;;;;;;;2.30;2.10;;;22.40;56.50;23.10;100152.00;;;;5013435;28;20207;-47
2023/07/05 08:38:33;;;;;;;2.67;1.93;;;22.40;56.60;23.00;100144.00;;;;5013669;28;20175;-47
2023/07/05 08:41:35;;;;;;;2.27;2.07;;;22.40;56.60;23.10;100148.00;;;;5013846;28;20180;-48
2023/07/05 08:44:16;;;;;;;2.57;2.10;;;22.40;56.50;23.00;100149.00;;;;4993875;28;20370;-49
2023/07/05 08:46:44;;;;;;;2.20;2.00;;;22.40;56.50;23.00;100170.00;;;;5013530;28;20837;-48
2023/07/05 08:49:45;;;;;;;2.00;1.90;;;22.40;56.50;23.00;100154.00;;;;4995606;28;20176;-48
2023/07/05 08:52:33;;;;;;;2.00;1.90;;;22.40;56.50;23.00;100149.00;;;;4980529;28;20183;-48
2023/07/05 08:55:02;;;;;;;2.13;1.97;;;22.40;56.50;23.00;100166.00;;;;4982538;28;20179;-48
2023/07/05 08:57:39;;;;;;;2.00;1.90;;;22.40;56.50;23.00;100164.00;;;;4947937;28;20207;-47
2023/07/05 09:00:11;;;;;;;2.33;2.13;;;22.40;56.60;23.00;100163.00;;;;4995952;28;20179;-48
2023/07/05 09:02:37;;;;;;;2.10;1.90;;;22.40;56.60;23.00;100151.00;;;;4965593;28;20176;-48
2023/07/05 09:05:19;;;;;;;2.40;2.20;;;22.40;56.60;23.00;100167.00;;;;5009334;28;20218;-51
2023/07/05 09:07:54;;;;;;;2.13;1.93;;;22.30;56.60;23.00;100166.00;;;;4994116;28;20619;-47
2023/07/05 09:10:43;;;;;;;2.20;2.00;;;22.40;57.20;23.00;100194.00;;;;5014114;28;20240;-49
2023/07/05 09:13:31;;;;;;;2.20;2.00;;;22.40;56.70;23.00;100171.00;;;;4996234;28;20176;-48
2023/07/05 09:16:18;;;;;;;3.23;2.00;;;22.30;56.40;23.00;100193.00;;;;5014082;28;20214;-48
2023/07/05 09:18:55;;;;;;;2.07;1.97;;;22.30;56.40;23.00;100209.00;;;;5001828;28;20187;-49
2023/07/05 09:21:36;;;;;;;2.00;1.90;;;22.30;56.40;23.00;100186.00;;;;5031503;28;20183;-48
2023/07/05 09:24:11;;;;;;;2.20;2.00;;;22.30;57.10;23.00;100210.00;;;;4979330;28;20669;-47
2023/07/05 09:26:40;;;;;;;1.90;1.80;;;22.30;56.40;23.00;100208.00;;;;5012777;28;20203;-48
2023/07/05 09:29:34;;;;;;;1.90;1.80;;;22.30;56.40;23.00;100214.00;;;;4995445;28;20188;-48
2023/07/05 09:32:37;;;;;;;2.10;2.00;;;22.30;56.40;23.00;100217.00;;;;4995445;28;20171;-48
2023/07/05 09:35:04;;;;;;;2.00;1.90;;;22.30;56.40;23.00;100222.00;;;;4970658;28;20229;-48
2023/07/05 09:37:34;;;;;;;1.90;1.80;;;22.30;56.40;23.00;100239.00;;;;5012519;28;20234;-48
2023/07/05 09:40:25;;;;;;;2.00;1.90;;;22.30;56.40;23.00;100241.00;;;;5012590;28;20655;-49
2023/07/05 09:43:05;;;;;;;1.83;1.73;;;22.30;56.40;23.00;100235.00;;;;4987453;28;20199;-49
2023/07/05 09:45:30;;;;;;;2.10;2.00;;;22.30;56.40;22.90;100239.00;;;;4985126;28;20172;-48
2023/07/05 09:48:01;;;;;;;2.00;1.90;;;22.30;56.40;23.00;100243.00;;;;4979017;28;20650;-48
2023/07/05 09:50:27;;;;;;;2.40;1.83;;;22.30;56.50;22.90;100244.00;;;;4995074;28;20595;-48
2023/07/05 09:52:59;;;;;;;2.27;2.07;;;22.30;56.40;23.00;100251.00;;;;5012543;28;20638;-48
2023/07/05 09:55:27;;;;;;;2.20;1.93;;;22.20;56.40;23.00;100257.00;;;;4995018;28;20761;-48
2023/07/05 09:57:53;;;;;;;2.00;1.90;;;22.30;56.40;23.00;100235.00;;;;5012342;28;20323;-49
2023/07/05 10:00:36;;;;;;;2.20;2.00;;;22.30;56.40;23.00;100240.00;;;;5012098;28;20187;-49
2023/07/05 10:03:14;;;;;;;1.80;1.70;;;22.30;56.40;23.00;100244.00;;;;5012272;28;20183;-48
2023/07/05 10:05:50;;;;;;;1.87;1.77;;;22.30;56.40;23.00;100249.00;;;;5012086;28;20187;-53
2023/07/05 10:08:16;;;;;;;2.03;1.93;;;22.30;56.40;23.00;100243.00;;;;4979584;28;20175;-48
2023/07/05 10:10:42;;;;;;;1.90;1.80;;;22.30;56.40;23.00;100256.00;;;;4994669;28;20273;-48
2023/07/05 10:13:25;;;;;;;2.10;1.90;;;22.30;56.40;23.00;100252.00;;;;5012247;28;20183;-48
2023/07/05 10:15:52;;;;;;;1.80;1.70;;;22.30;56.30;23.00;100242.00;;;;5011880;28;20238;-48
2023/07/05 10:18:34;;;;;;;1.87;1.77;;;22.30;56.40;23.00;100261.00;;;;4994607;28;20218;-49
2023/07/05 10:21:05;;;;;;;1.90;1.80;;;22.30;57.00;23.00;100260.00;;;;5011780;28;20206;-49
2023/07/05 10:23:32;;;;;;;2.10;1.90;;;22.30;56.30;23.00;100258.00;;;;5012220;28;20172;-48
2023/07/05 10:26:05;;;;;;;2.10;1.90;;;22.30;56.40;23.00;100269.00;;;;4995043;28;20199;-48
2023/07/05 10:28:31;;;;;;;1.70;1.60;;;22.30;56.30;23.00;100263.00;;;;4987435;28;20214;-49
2023/07/05 10:31:05;;;;;;;2.10;1.90;;;22.30;56.30;23.00;100274.00;;;;4994798;28;20179;-48
2023/07/05 10:33:33;;;;;;;2.23;1.73;;;22.30;56.30;23.00;100288.00;;;;5011508;28;20183;-55
2023/07/05 10:36:08;;;;;;;2.30;2.00;;;22.30;56.20;23.00;100282.00;;;;5011626;28;20215;-47
2023/07/05 10:38:48;;;;;;;1.90;1.80;;;22.30;56.30;23.00;100285.00;;;;4994771;28;20222;-48
2023/07/05 10:41:19;;;;;;;2.27;2.00;;;22.20;56.30;23.00;100283.00;;;;5011943;28;20255;-48
2023/07/05 10:44:15;;;;;;;2.27;1.80;;;22.20;56.10;23.00;100274.00;;;;5011222;28;20263;-48
2023/07/05 10:46:41;;;;;;;2.20;2.00;;;22.30;56.20;23.00;100285.00;;;;4981027;28;20203;-48
2023/07/05 10:49:12;;;;;;;2.10;1.97;;;22.30;56.20;23.00;100292.00;;;;4977647;28;20565;-49
2023/07/05 10:51:40;;;;;;;2.00;1.90;;;22.20;56.00;23.00;100293.00;;;;4978908;28;20183;-48
2023/07/05 10:54:44;;;;;;;1.83;1.73;;;22.30;56.30;23.00;100288.00;;;;4994017;28;20211;-48
2023/07/05 10:57:34;;;;;;;1.80;1.70;;;22.30;56.30;23.00;100285.00;;;;4993300;28;20214;-48
2023/07/05 11:00:39;;;;;;;2.27;2.07;;;22.20;56.10;23.00;100301.00;;;;4979638;28;20240;-49
2023/07/05 11:03:31;;;;;;;2.07;1.87;;;22.20;56.20;23.00;100288.00;;;;4980794;28;20218;-49
2023/07/05 11:05:58;;;;;;;2.20;2.00;;;22.30;56.20;23.00;100297.00;;;;5009276;28;20216;-48